Pagina principale
METAR-TAF:

METAR-TAF

Aeroporti :

Aeroporto di Podgorica

Podgorica, Montenegro

latitudine: 42-26N, longitudine: 019-17E, altezza: 53 m

Osservazione

Il bollettino è stato emesso 31 minuti fa, alle 20:00 UTC
Vento 4 kt da ovest
Temperature 22°C
Umidità 69%
Pressione 1016 hPa
Visibilità 10 km o più
nessuna nube inferiore a 1500 m e nessun cumulonembo

METAR: LYPG 162000Z 26004KT CAVOK 22/16 Q1016 NOSIG

Ora: 22:31 (20:31 UTC)

Previsione

Il bollettino è stato emesso 3 ore e 31 minuti fa, alle 17:00 UTC
Previsione valida dal 16 alle 18 UTC al 17 alle 18 UTC
Vento 5 kt da nord
Visibilità 10 km o più
nessuna nube inferiore a 1500 m e nessun cumulonembo

TAF: LYPG 161700Z 1618/1718 36005KT CAVOK TX32/1714Z TN17/1704Z

Osservazioni e previsioni meteorologiche di più di 4000 aeroporti (messaggi METAR e TAF).

Le stazioni disponibili sono rappresentate dai dischi gialli e rossi sulla carta.

Puntare il mouse per vedere il nome della stazione.

Clicca sopra per visualizzare le osservazioni e previsioni meteorologiche.

Per cambiare la mappa : fare clic sui pulsanti verdi con una croce nera per ingrandire, il pulsante verde con un trattino per diminuire, o sulla freccia verde per le mappe adiacenti.


METAR-TAF: